createdAt,value
2022-10-09T00:00:41.449Z,88.00
2022-10-09T00:03:08.183Z,87.80
2022-10-09T00:05:35.010Z,87.80
2022-10-09T00:08:01.807Z,87.80
2022-10-09T00:10:28.599Z,87.80
2022-10-09T00:12:55.451Z,87.70
2022-10-09T00:15:22.409Z,87.80
2022-10-09T00:17:49.257Z,87.80
2022-10-09T00:20:16.187Z,87.70
2022-10-09T00:22:45.674Z,87.90
2022-10-09T00:25:12.630Z,88.40
2022-10-09T00:27:39.379Z,88.70
2022-10-09T00:30:06.872Z,89.80
2022-10-09T00:32:33.670Z,89.50
2022-10-09T00:35:00.427Z,89.70
2022-10-09T00:37:28.479Z,90.00
2022-10-09T00:39:55.203Z,89.60
2022-10-09T00:42:21.919Z,89.00
2022-10-09T00:44:57.692Z,88.80
2022-10-09T00:47:32.818Z,88.50
2022-10-09T00:50:06.578Z,88.40
2022-10-09T00:52:33.346Z,88.50
2022-10-09T00:55:00.505Z,88.40
2022-10-09T00:57:27.215Z,88.50
2022-10-09T00:59:54.051Z,88.50
2022-10-09T01:02:21.365Z,88.40
2022-10-09T01:04:49.997Z,88.40
2022-10-09T01:07:25.858Z,88.40
2022-10-09T01:09:57.769Z,89.30
2022-10-09T01:12:56.688Z,89.40
2022-10-09T01:15:41.807Z,89.20
2022-10-09T01:18:27.401Z,89.60
2022-10-09T01:21:04.935Z,90.00
2022-10-09T01:23:49.191Z,90.00
2022-10-09T01:26:35.583Z,89.80
2022-10-09T01:29:05.150Z,89.30
2022-10-09T01:31:34.083Z,89.20
2022-10-09T01:34:00.777Z,89.00
2022-10-09T01:36:29.257Z,88.90
2022-10-09T01:39:00.440Z,88.70
2022-10-09T01:41:27.216Z,88.60
2022-10-09T01:43:53.980Z,88.70
2022-10-09T01:46:25.946Z,88.70
2022-10-09T01:49:13.857Z,88.70
2022-10-09T01:51:57.572Z,88.70
2022-10-09T01:54:43.668Z,89.10
2022-10-09T01:57:10.511Z,89.60
2022-10-09T01:59:37.860Z,90.10
2022-10-09T02:02:05.342Z,90.20
2022-10-09T02:04:32.225Z,90.20
2022-10-09T02:06:58.946Z,90.20
2022-10-09T02:09:25.733Z,90.20
2022-10-09T02:11:54.668Z,90.10
2022-10-09T02:14:21.423Z,90.00
2022-10-09T02:16:50.299Z,89.70
2022-10-09T02:19:17.528Z,89.60
2022-10-09T02:21:54.246Z,89.30
2022-10-09T02:24:22.183Z,89.20
2022-10-09T02:26:48.951Z,89.20
2022-10-09T02:29:15.719Z,89.10
2022-10-09T02:31:42.760Z,89.00
2022-10-09T02:34:13.211Z,89.00
2022-10-09T02:36:40.159Z,88.90
2022-10-09T02:39:07.126Z,88.80
2022-10-09T02:41:33.930Z,88.90
2022-10-09T02:44:00.736Z,89.00
2022-10-09T02:46:27.519Z,89.50
2022-10-09T02:48:54.338Z,89.30
2022-10-09T02:51:21.103Z,89.30
2022-10-09T02:53:47.871Z,89.30
2022-10-09T02:56:14.636Z,89.30
2022-10-09T02:58:41.452Z,89.30
2022-10-09T03:01:08.636Z,89.60
2022-10-09T03:03:35.420Z,89.70
2022-10-09T03:06:02.617Z,89.80
2022-10-09T03:08:29.428Z,89.80
2022-10-09T03:10:56.233Z,89.70
2022-10-09T03:13:23.079Z,89.60
2022-10-09T03:15:49.828Z,89.70
2022-10-09T03:18:16.567Z,89.70
2022-10-09T03:20:43.279Z,89.30
2022-10-09T03:23:09.984Z,89.10
2022-10-09T03:25:36.793Z,89.00
2022-10-09T03:28:03.729Z,89.70
2022-10-09T03:30:30.505Z,88.60
2022-10-09T03:32:57.565Z,88.70
2022-10-09T03:35:24.290Z,89.00
2022-10-09T03:37:51.200Z,89.10
2022-10-09T03:40:18.420Z,89.30
2022-10-09T03:42:45.131Z,89.20
2022-10-09T03:45:11.848Z,89.10
2022-10-09T03:47:38.568Z,89.10
2022-10-09T03:50:05.775Z,89.20
2022-10-09T03:52:32.520Z,89.20
2022-10-09T03:54:59.364Z,89.20
2022-10-09T03:57:26.156Z,89.10
2022-10-09T03:59:52.915Z,89.00
2022-10-09T04:02:19.689Z,89.10
2022-10-09T04:04:46.555Z,89.10
2022-10-09T04:07:13.261Z,88.80
2022-10-09T04:09:39.950Z,89.00
2022-10-09T04:12:06.865Z,88.90
2022-10-09T04:14:33.589Z,89.00
2022-10-09T04:17:00.610Z,88.80
2022-10-09T04:19:27.344Z,88.80
2022-10-09T04:21:54.289Z,89.10
2022-10-09T04:24:21.047Z,89.10
2022-10-09T04:26:47.762Z,89.10
2022-10-09T04:29:14.549Z,89.10
2022-10-09T04:31:41.369Z,89.10
2022-10-09T04:34:08.157Z,89.10
2022-10-09T04:36:35.021Z,89.00
2022-10-09T04:39:01.818Z,89.00
2022-10-09T04:41:28.533Z,89.00
2022-10-09T04:43:56.155Z,89.20
2022-10-09T04:46:23.112Z,89.10
2022-10-09T04:48:50.087Z,89.10
2022-10-09T04:51:17.295Z,89.00
2022-10-09T04:53:44.166Z,88.80
2022-10-09T04:56:15.981Z,88.60
2022-10-09T04:58:43.072Z,88.50
2022-10-09T05:01:20.726Z,88.30
2022-10-09T05:03:47.544Z,88.50
2022-10-09T05:06:14.539Z,88.60
2022-10-09T05:08:42.406Z,88.80
2022-10-09T05:11:22.732Z,88.90
2022-10-09T05:13:51.192Z,88.90
2022-10-09T05:16:20.141Z,89.60
2022-10-09T05:18:48.682Z,89.00
2022-10-09T05:21:15.797Z,90.00
2022-10-09T05:23:42.621Z,89.30
2022-10-09T05:26:16.811Z,90.00
2022-10-09T05:28:43.755Z,89.60
2022-10-09T05:31:12.530Z,89.70
2022-10-09T05:33:39.248Z,89.20
2022-10-09T05:36:06.399Z,89.00
2022-10-09T05:38:33.684Z,88.90
2022-10-09T05:41:05.191Z,89.00
2022-10-09T05:43:39.710Z,89.10
2022-10-09T05:46:14.208Z,89.20
2022-10-09T05:48:42.228Z,89.50
2022-10-09T05:51:09.872Z,89.50
2022-10-09T05:53:37.160Z,89.30
2022-10-09T05:56:10.884Z,89.70
2022-10-09T05:58:37.635Z,89.10
2022-10-09T06:01:04.382Z,89.20
2022-10-09T06:03:31.325Z,89.20
2022-10-09T06:06:02.451Z,89.30
2022-10-09T06:08:31.044Z,89.30
2022-10-09T06:10:57.795Z,89.30
2022-10-09T06:13:24.563Z,89.20
2022-10-09T06:15:55.068Z,89.20
2022-10-09T06:18:21.797Z,89.00
2022-10-09T06:20:55.816Z,89.00
2022-10-09T06:23:22.620Z,89.00
2022-10-09T06:25:56.789Z,89.00
2022-10-09T06:28:23.785Z,89.00
2022-10-09T06:30:50.615Z,89.00
2022-10-09T06:33:17.488Z,89.10
2022-10-09T06:35:44.250Z,88.90
2022-10-09T06:38:10.955Z,88.90
2022-10-09T06:40:38.582Z,89.30
2022-10-09T06:43:06.035Z,89.60
2022-10-09T06:45:36.610Z,89.70
2022-10-09T06:48:03.818Z,89.80
2022-10-09T06:50:31.019Z,90.10
2022-10-09T06:52:58.426Z,90.20
2022-10-09T06:55:28.641Z,89.70
2022-10-09T06:57:55.596Z,89.50
2022-10-09T07:00:22.594Z,89.80
2022-10-09T07:02:50.144Z,89.80
2022-10-09T07:05:17.426Z,89.00
2022-10-09T07:07:44.184Z,88.10
2022-10-09T07:10:11.967Z,88.40
2022-10-09T07:12:39.208Z,88.10
2022-10-09T07:15:07.672Z,87.80
2022-10-09T07:17:34.698Z,88.00
2022-10-09T07:20:01.435Z,87.80
2022-10-09T07:22:28.169Z,87.50
2022-10-09T07:24:54.889Z,87.20
2022-10-09T07:27:21.645Z,87.10
2022-10-09T07:29:48.439Z,87.10
2022-10-09T07:32:15.153Z,86.90
2022-10-09T07:34:42.092Z,86.90
2022-10-09T07:37:09.713Z,86.90
2022-10-09T07:39:39.651Z,86.70
2022-10-09T07:42:08.365Z,86.20
2022-10-09T07:44:35.220Z,86.50
2022-10-09T07:47:02.006Z,86.10
2022-10-09T07:49:28.773Z,86.20
2022-10-09T07:51:55.571Z,86.10
2022-10-09T07:54:22.315Z,86.00
2022-10-09T07:56:49.046Z,85.70
2022-10-09T07:59:16.239Z,85.60
2022-10-09T08:01:43.108Z,85.40
2022-10-09T08:04:11.535Z,85.30
2022-10-09T08:06:38.284Z,84.40
2022-10-09T08:09:06.369Z,84.70
2022-10-09T08:11:33.158Z,84.70
2022-10-09T08:13:59.934Z,85.10
2022-10-09T08:16:27.091Z,85.20
2022-10-09T08:18:57.946Z,85.20
2022-10-09T08:21:24.703Z,84.70
2022-10-09T08:23:55.377Z,84.90
2022-10-09T08:26:22.786Z,84.60
2022-10-09T08:28:50.747Z,85.10
2022-10-09T08:31:17.790Z,84.90
2022-10-09T08:33:44.565Z,84.80
2022-10-09T08:36:12.216Z,84.60
2022-10-09T08:38:48.374Z,84.60
2022-10-09T08:41:33.098Z,84.50
2022-10-09T08:44:04.532Z,84.40
2022-10-09T08:46:57.343Z,84.40
2022-10-09T08:49:26.283Z,84.50
2022-10-09T08:51:53.203Z,84.20
2022-10-09T08:54:25.550Z,84.30
2022-10-09T08:56:52.520Z,84.00
2022-10-09T08:59:19.279Z,83.30
2022-10-09T09:01:49.915Z,83.00
2022-10-09T09:04:27.720Z,83.20
2022-10-09T09:07:03.062Z,83.20
2022-10-09T09:10:00.964Z,83.20
2022-10-09T09:12:34.215Z,83.30
2022-10-09T09:15:26.325Z,84.20
2022-10-09T09:17:58.937Z,84.30
2022-10-09T09:20:27.744Z,85.30
2022-10-09T09:22:54.562Z,85.20
2022-10-09T09:25:23.516Z,85.30
2022-10-09T09:27:51.578Z,85.10
2022-10-09T09:30:38.040Z,84.90
2022-10-09T09:33:21.512Z,84.90
2022-10-09T09:36:06.705Z,84.90
2022-10-09T09:38:33.534Z,84.60
2022-10-09T09:41:00.240Z,84.40
2022-10-09T09:43:27.207Z,84.50
2022-10-09T09:45:58.147Z,85.00
2022-10-09T09:48:42.413Z,85.30
2022-10-09T09:51:29.545Z,84.40
2022-10-09T09:54:04.376Z,83.90
2022-10-09T09:59:43.271Z,84.00
2022-10-09T10:02:17.923Z,83.90
2022-10-09T10:04:51.861Z,83.90
2022-10-09T10:07:39.732Z,84.00
2022-10-09T10:10:11.492Z,84.20
2022-10-09T10:12:43.039Z,84.00
2022-10-09T10:15:23.471Z,84.20
2022-10-09T10:17:55.142Z,84.10
2022-10-09T10:20:21.868Z,83.70
2022-10-09T10:22:53.057Z,83.90
2022-10-09T10:25:20.822Z,83.60
2022-10-09T10:27:50.435Z,83.20
2022-10-09T10:30:18.939Z,81.60
2022-10-09T10:33:02.035Z,81.70
2022-10-09T10:35:31.008Z,82.20
2022-10-09T10:38:13.213Z,82.20
2022-10-09T10:40:54.186Z,83.20
2022-10-09T10:43:43.087Z,82.60
2022-10-09T10:46:22.577Z,82.60
2022-10-09T10:48:50.057Z,82.80
2022-10-09T10:51:22.762Z,82.60
2022-10-09T10:54:07.651Z,82.50
2022-10-09T10:56:38.049Z,82.10
2022-10-09T10:59:22.839Z,81.90
2022-10-09T11:02:06.382Z,81.40
2022-10-09T11:05:11.565Z,81.80
2022-10-09T11:07:44.405Z,81.60
2022-10-09T11:10:46.792Z,81.50
2022-10-09T11:13:24.163Z,81.00
2022-10-09T11:16:29.690Z,80.90
2022-10-09T11:19:12.324Z,80.80
2022-10-09T11:22:07.394Z,80.80
2022-10-09T11:24:52.952Z,80.90
2022-10-09T11:27:40.288Z,80.80
2022-10-09T11:30:15.710Z,80.80
2022-10-09T11:32:45.193Z,80.70
2022-10-09T11:35:11.962Z,77.00
2022-10-09T11:37:42.075Z,76.90
2022-10-09T11:40:21.440Z,77.20
2022-10-09T11:42:53.002Z,76.60
2022-10-09T11:45:27.329Z,79.00
2022-10-09T11:48:08.306Z,78.10
2022-10-09T11:50:53.449Z,78.30
2022-10-09T11:53:22.137Z,78.00
2022-10-09T11:55:49.392Z,78.30
2022-10-09T11:58:19.169Z,78.60
2022-10-09T12:00:46.986Z,79.20
2022-10-09T12:03:33.239Z,79.30
2022-10-09T12:06:13.241Z,79.40
2022-10-09T12:08:42.629Z,79.50
2022-10-09T12:11:17.028Z,79.60
2022-10-09T12:13:50.002Z,79.70
2022-10-09T12:16:34.548Z,79.90
2022-10-09T12:19:03.622Z,80.30
2022-10-09T12:21:52.215Z,80.80
2022-10-09T12:24:24.055Z,81.10
2022-10-09T12:26:51.693Z,81.00
2022-10-09T12:29:27.941Z,81.20
2022-10-09T12:31:57.276Z,82.20
2022-10-09T12:34:36.384Z,82.60
2022-10-09T12:37:11.819Z,82.00
2022-10-09T12:39:39.091Z,82.10
2022-10-09T12:42:05.894Z,82.70
2022-10-09T12:44:36.942Z,84.20
2022-10-09T12:47:08.710Z,83.00
2022-10-09T12:49:35.619Z,83.20
2022-10-09T12:52:02.710Z,83.40
2022-10-09T12:54:30.910Z,83.30
2022-10-09T12:56:57.957Z,83.00
2022-10-09T12:59:25.444Z,83.50
2022-10-09T13:01:54.868Z,83.60
2022-10-09T13:04:29.516Z,82.20
2022-10-09T13:06:56.946Z,81.90
2022-10-09T13:09:29.016Z,81.30
2022-10-09T13:12:00.903Z,81.30
2022-10-09T13:14:52.833Z,81.40
2022-10-09T13:17:40.785Z,82.70
2022-10-09T13:20:16.736Z,82.70
2022-10-09T13:23:04.823Z,82.40
2022-10-09T13:25:36.157Z,82.50
2022-10-09T13:28:05.210Z,83.00
2022-10-09T13:30:32.217Z,83.40
2022-10-09T13:32:59.331Z,83.80
2022-10-09T13:35:26.076Z,83.80
2022-10-09T13:37:53.099Z,83.80
2022-10-09T13:40:21.739Z,84.00
2022-10-09T13:42:55.914Z,84.30
2022-10-09T13:45:22.721Z,84.10
2022-10-09T13:47:49.738Z,84.00
2022-10-09T13:50:17.800Z,84.20
2022-10-09T13:52:45.911Z,84.00
2022-10-09T13:55:13.431Z,83.70
2022-10-09T13:57:40.186Z,83.60
2022-10-09T14:00:07.763Z,83.70
2022-10-09T14:02:34.491Z,83.50
2022-10-09T14:05:01.196Z,83.50
2022-10-09T14:07:27.949Z,83.40
2022-10-09T14:09:54.679Z,83.30
2022-10-09T14:12:21.373Z,83.40
2022-10-09T14:14:48.115Z,83.10
2022-10-09T14:17:15.455Z,82.90
2022-10-09T14:19:42.181Z,82.80
2022-10-09T14:22:08.892Z,82.90
2022-10-09T14:24:35.760Z,82.90
2022-10-09T14:27:02.576Z,83.00
2022-10-09T14:29:29.312Z,83.60
2022-10-09T14:31:56.083Z,82.60
2022-10-09T14:34:22.789Z,82.70
2022-10-09T14:36:49.603Z,82.50
2022-10-09T14:39:16.374Z,82.80
2022-10-09T14:41:43.816Z,82.20
2022-10-09T14:44:11.092Z,82.40
2022-10-09T14:46:39.300Z,82.30
2022-10-09T14:49:10.190Z,82.10
2022-10-09T14:51:38.303Z,82.00
2022-10-09T14:54:05.679Z,82.20
2022-10-09T14:56:32.784Z,82.50
2022-10-09T14:59:02.686Z,82.50
2022-10-09T15:01:29.683Z,82.10
2022-10-09T15:03:56.609Z,81.90
2022-10-09T15:06:27.770Z,83.20
2022-10-09T15:08:56.656Z,82.80
2022-10-09T15:11:24.497Z,83.30
2022-10-09T15:13:51.213Z,83.10
2022-10-09T15:16:18.375Z,82.30
2022-10-09T15:18:46.175Z,81.50
2022-10-09T15:21:15.725Z,81.30
2022-10-09T15:23:42.636Z,82.20
2022-10-09T15:26:09.488Z,81.90
2022-10-09T15:28:37.033Z,81.50
2022-10-09T15:31:04.704Z,82.20
2022-10-09T15:33:31.660Z,81.80
2022-10-09T15:35:58.354Z,83.40
2022-10-09T15:38:25.333Z,83.40
2022-10-09T15:40:53.813Z,83.80
2022-10-09T15:43:21.813Z,83.60
2022-10-09T15:45:48.666Z,83.40
2022-10-09T15:48:17.866Z,84.00
2022-10-09T15:50:46.703Z,84.50
2022-10-09T15:53:15.836Z,83.70
2022-10-09T15:55:44.177Z,83.10
2022-10-09T15:58:10.971Z,83.80
2022-10-09T16:00:38.391Z,83.80
2022-10-09T16:03:05.384Z,83.70
2022-10-09T16:05:37.586Z,84.80
2022-10-09T16:08:04.894Z,85.10
2022-10-09T16:10:31.834Z,84.80
2022-10-09T16:12:58.627Z,86.10
2022-10-09T16:15:25.448Z,85.90
2022-10-09T16:17:52.452Z,85.60
2022-10-09T16:20:19.177Z,85.90
2022-10-09T16:22:46.820Z,89.60
2022-10-09T16:25:14.453Z,88.70
2022-10-09T16:27:41.785Z,89.30
2022-10-09T16:30:11.986Z,88.60
2022-10-09T16:32:38.726Z,88.70
2022-10-09T16:35:05.885Z,86.50
2022-10-09T16:37:32.703Z,87.40
2022-10-09T16:39:59.586Z,86.60
2022-10-09T16:42:26.348Z,86.60
2022-10-09T16:44:53.070Z,87.40
2022-10-09T16:47:19.813Z,86.60
2022-10-09T16:49:47.058Z,86.60
2022-10-09T16:52:14.927Z,86.70
2022-10-09T16:54:42.120Z,86.90
2022-10-09T16:57:08.903Z,87.70
2022-10-09T16:59:35.896Z,87.80
2022-10-09T17:02:03.585Z,87.60
2022-10-09T17:04:30.468Z,86.70
2022-10-09T17:06:57.182Z,86.60
2022-10-09T17:09:24.143Z,87.40
2022-10-09T17:11:50.882Z,86.70
2022-10-09T17:14:17.644Z,88.30
2022-10-09T17:16:44.699Z,90.60
2022-10-09T17:19:11.807Z,88.40
2022-10-09T17:21:38.539Z,88.00
2022-10-09T17:24:05.801Z,86.60
2022-10-09T17:26:32.642Z,85.40
2022-10-09T17:28:59.771Z,84.60
2022-10-09T17:31:26.943Z,84.40
2022-10-09T17:33:55.307Z,84.10
2022-10-09T17:36:23.109Z,83.80
2022-10-09T17:38:49.990Z,83.70
2022-10-09T17:41:18.383Z,83.70
2022-10-09T17:43:45.168Z,83.80
2022-10-09T17:46:14.025Z,84.50
2022-10-09T17:48:45.128Z,83.70
2022-10-09T17:51:16.902Z,83.90
2022-10-09T17:53:45.690Z,84.00
2022-10-09T17:56:12.523Z,84.20
2022-10-09T17:58:39.433Z,84.20
2022-10-09T18:01:07.018Z,84.50
2022-10-09T18:03:34.453Z,84.50
2022-10-09T18:06:03.796Z,84.60
2022-10-09T18:08:31.623Z,85.60
2022-10-09T18:11:00.095Z,87.00
2022-10-09T18:13:26.911Z,89.60
2022-10-09T18:15:53.702Z,90.00
2022-10-09T18:18:20.442Z,87.90
2022-10-09T18:20:47.193Z,88.00
2022-10-09T18:23:13.927Z,88.30
2022-10-09T18:25:42.073Z,88.10
2022-10-09T18:28:08.881Z,88.20
2022-10-09T18:30:41.046Z,88.60
2022-10-09T18:33:07.834Z,89.10
2022-10-09T18:35:37.861Z,88.90
2022-10-09T18:38:05.409Z,89.30
2022-10-09T18:40:32.252Z,89.60
2022-10-09T18:42:59.118Z,89.80
2022-10-09T18:45:25.971Z,90.40
2022-10-09T18:47:52.719Z,91.00
2022-10-09T18:50:19.441Z,90.80
2022-10-09T18:52:46.572Z,90.80
2022-10-09T18:55:13.994Z,91.20
2022-10-09T18:57:40.743Z,91.00
2022-10-09T19:00:10.075Z,90.80
2022-10-09T19:02:36.898Z,90.50
2022-10-09T19:05:03.877Z,90.30
2022-10-09T19:07:30.698Z,90.30
2022-10-09T19:09:57.731Z,90.40
2022-10-09T19:12:24.509Z,90.80
2022-10-09T19:14:53.046Z,91.30
2022-10-09T19:17:20.227Z,91.10
2022-10-09T19:19:47.107Z,91.00
2022-10-09T19:22:16.605Z,90.80
2022-10-09T19:24:45.082Z,90.70
2022-10-09T19:27:12.095Z,90.50
2022-10-09T19:29:38.846Z,90.30
2022-10-09T19:32:05.597Z,90.30
2022-10-09T19:34:32.481Z,90.20
2022-10-09T19:36:59.338Z,90.00
2022-10-09T19:39:26.095Z,89.90
2022-10-09T19:41:52.898Z,89.60
2022-10-09T19:44:20.388Z,89.60
2022-10-09T19:46:48.461Z,89.50
2022-10-09T19:49:15.256Z,89.10
2022-10-09T19:51:42.015Z,89.20
2022-10-09T19:54:09.346Z,89.00
2022-10-09T19:56:36.237Z,88.70
2022-10-09T19:59:04.441Z,88.50
2022-10-09T20:01:32.812Z,88.40
2022-10-09T20:04:05.043Z,88.30
2022-10-09T20:06:31.939Z,88.60
2022-10-09T20:08:58.663Z,88.80
2022-10-09T20:11:26.222Z,89.00
2022-10-09T20:13:56.012Z,88.50
2022-10-09T20:16:24.291Z,88.70
2022-10-09T20:18:51.550Z,88.60
2022-10-09T20:21:18.851Z,88.50
2022-10-09T20:23:45.695Z,88.30
2022-10-09T20:26:16.840Z,89.00
2022-10-09T20:28:43.986Z,88.30
2022-10-09T20:31:14.722Z,88.40
2022-10-09T20:33:41.875Z,88.50
2022-10-09T20:36:09.011Z,88.70
2022-10-09T20:38:35.728Z,88.90
2022-10-09T20:41:03.855Z,89.00
2022-10-09T20:43:30.612Z,89.00
2022-10-09T20:45:57.396Z,89.10
2022-10-09T20:48:24.622Z,89.10
2022-10-09T20:50:51.401Z,89.10
2022-10-09T20:53:18.168Z,89.10
2022-10-09T20:55:44.868Z,89.20
2022-10-09T20:58:11.584Z,89.50
2022-10-09T21:00:42.310Z,89.60
2022-10-09T21:03:12.356Z,89.60
2022-10-09T21:05:42.805Z,89.80
2022-10-09T21:08:09.651Z,89.70
2022-10-09T21:10:45.112Z,89.70
2022-10-09T21:13:12.082Z,89.70
2022-10-09T21:15:46.000Z,89.70
2022-10-09T21:18:13.342Z,89.80
2022-10-09T21:20:40.927Z,89.80
2022-10-09T21:23:07.945Z,89.80
2022-10-09T21:25:34.725Z,89.90
2022-10-09T21:28:01.615Z,90.00
2022-10-09T21:30:28.657Z,89.90
2022-10-09T21:32:55.969Z,90.00
2022-10-09T21:35:23.004Z,89.90
2022-10-09T21:37:50.213Z,90.10
2022-10-09T21:40:17.914Z,90.20
2022-10-09T21:42:44.655Z,90.20
2022-10-09T21:45:12.940Z,90.30
2022-10-09T21:47:39.750Z,90.30
2022-10-09T21:50:06.769Z,90.30
2022-10-09T21:52:33.546Z,90.20
2022-10-09T21:55:00.259Z,90.20
2022-10-09T21:57:27.220Z,90.30
2022-10-09T21:59:53.928Z,90.60
2022-10-09T22:02:20.639Z,90.20
2022-10-09T22:04:47.450Z,90.60
2022-10-09T22:07:14.155Z,90.20
2022-10-09T22:09:40.883Z,90.30
2022-10-09T22:12:07.587Z,90.30
2022-10-09T22:14:34.287Z,90.30
2022-10-09T22:17:00.999Z,90.30
2022-10-09T22:19:27.916Z,90.50
2022-10-09T22:21:54.679Z,90.50
2022-10-09T22:24:23.816Z,90.50
2022-10-09T22:26:52.647Z,90.60
2022-10-09T22:29:19.359Z,90.60
2022-10-09T22:31:46.067Z,90.50
2022-10-09T22:34:12.780Z,90.50
2022-10-09T22:36:39.501Z,90.50
2022-10-09T22:39:06.511Z,90.50
2022-10-09T22:41:34.348Z,90.40
2022-10-09T22:44:01.452Z,90.40
2022-10-09T22:46:29.007Z,90.40
2022-10-09T22:48:56.045Z,90.40
2022-10-09T22:51:23.563Z,90.40
2022-10-09T22:53:50.299Z,90.40
2022-10-09T22:56:21.581Z,90.40
2022-10-09T22:58:48.632Z,90.50
2022-10-09T23:01:21.235Z,90.60
2022-10-09T23:03:47.964Z,90.60
2022-10-09T23:06:16.254Z,90.70
2022-10-09T23:08:43.943Z,90.70
2022-10-09T23:11:10.734Z,90.60
2022-10-09T23:13:37.779Z,90.60
2022-10-09T23:16:05.339Z,90.50
2022-10-09T23:18:32.656Z,90.50
2022-10-09T23:21:04.135Z,90.50
2022-10-09T23:23:31.749Z,90.50
2022-10-09T23:25:58.470Z,90.50
2022-10-09T23:28:27.692Z,90.50
2022-10-09T23:31:01.044Z,90.50
2022-10-09T23:33:27.764Z,90.50
2022-10-09T23:35:54.548Z,90.50
2022-10-09T23:38:21.257Z,90.50
2022-10-09T23:41:04.889Z,90.70
2022-10-09T23:43:32.978Z,90.70
2022-10-09T23:46:00.652Z,90.80
2022-10-09T23:48:27.499Z,90.80
2022-10-09T23:50:54.561Z,90.80
2022-10-09T23:53:21.719Z,90.60
2022-10-09T23:55:48.431Z,90.60
2022-10-09T23:58:20.603Z,90.60
